sensor_id;sensor_type;location;lat;lon;timestamp;temperature;humidity
12223;DHT22;6174;49.058;8.524;2023-02-28T05:01:52;0.30;97.90
12223;DHT22;6174;49.058;8.524;2023-02-28T05:04:19;0.30;97.80
12223;DHT22;6174;49.058;8.524;2023-02-28T05:06:46;0.30;97.70
12223;DHT22;6174;49.058;8.524;2023-02-28T05:09:12;0.30;97.80
12223;DHT22;6174;49.058;8.524;2023-02-28T05:11:40;0.30;97.70
12223;DHT22;6174;49.058;8.524;2023-02-28T05:14:09;0.30;97.60
12223;DHT22;6174;49.058;8.524;2023-02-28T05:16:36;0.30;97.70
12223;DHT22;6174;49.058;8.524;2023-02-28T05:19:04;0.20;97.60
12223;DHT22;6174;49.058;8.524;2023-02-28T05:21:33;0.20;97.80
12223;DHT22;6174;49.058;8.524;2023-02-28T05:24:02;0.20;97.80
12223;DHT22;6174;49.058;8.524;2023-02-28T05:26:29;0.20;97.90
12223;DHT22;6174;49.058;8.524;2023-02-28T05:28:56;0.20;97.90
12223;DHT22;6174;49.058;8.524;2023-02-28T05:31:23;0.20;98.00
12223;DHT22;6174;49.058;8.524;2023-02-28T05:33:50;0.20;98.30
12223;DHT22;6174;49.058;8.524;2023-02-28T05:36:18;0.20;98.00
12223;DHT22;6174;49.058;8.524;2023-02-28T05:38:46;0.20;98.00
12223;DHT22;6174;49.058;8.524;2023-02-28T05:41:14;0.20;98.00
12223;DHT22;6174;49.058;8.524;2023-02-28T05:43:41;0.30;98.10
12223;DHT22;6174;49.058;8.524;2023-02-28T05:46:10;0.30;98.00
12223;DHT22;6174;49.058;8.524;2023-02-28T05:48:38;0.20;98.00
12223;DHT22;6174;49.058;8.524;2023-02-28T05:51:06;0.30;97.90
12223;DHT22;6174;49.058;8.524;2023-02-28T05:53:34;0.30;98.00
12223;DHT22;6174;49.058;8.524;2023-02-28T05:56:02;0.30;98.20
12223;DHT22;6174;49.058;8.524;2023-02-28T05:58:29;0.30;98.10
12223;DHT22;6174;49.058;8.524;2023-02-28T06:00:56;0.30;98.20
12223;DHT22;6174;49.058;8.524;2023-02-28T06:03:23;0.40;98.10
12223;DHT22;6174;49.058;8.524;2023-02-28T06:05:50;0.50;98.10
12223;DHT22;6174;49.058;8.524;2023-02-28T06:08:17;0.40;97.80
12223;DHT22;6174;49.058;8.524;2023-02-28T06:10:45;0.40;97.90
12223;DHT22;6174;49.058;8.524;2023-02-28T06:13:12;0.40;98.00
12223;DHT22;6174;49.058;8.524;2023-02-28T06:15:39;0.40;98.30
12223;DHT22;6174;49.058;8.524;2023-02-28T06:18:06;0.40;98.10
12223;DHT22;6174;49.058;8.524;2023-02-28T06:20:33;0.40;98.20
12223;DHT22;6174;49.058;8.524;2023-02-28T06:23:01;0.70;98.20
12223;DHT22;6174;49.058;8.524;2023-02-28T06:25:29;0.40;98.00
12223;DHT22;6174;49.058;8.524;2023-02-28T06:27:57;0.40;98.30
12223;DHT22;6174;49.058;8.524;2023-02-28T06:30:24;0.40;97.80
12223;DHT22;6174;49.058;8.524;2023-02-28T06:32:52;0.10;97.80
12223;DHT22;6174;49.058;8.524;2023-02-28T06:35:19;0.40;97.90
12223;DHT22;6174;49.058;8.524;2023-02-28T06:37:46;0.50;98.20
12223;DHT22;6174;49.058;8.524;2023-02-28T06:40:14;0.50;98.00
12223;DHT22;6174;49.058;8.524;2023-02-28T06:42:41;0.50;97.80
12223;DHT22;6174;49.058;8.524;2023-02-28T06:45:10;0.50;98.10
12223;DHT22;6174;49.058;8.524;2023-02-28T06:47:37;0.50;97.70
12223;DHT22;6174;49.058;8.524;2023-02-28T06:50:06;0.50;97.70
12223;DHT22;6174;49.058;8.524;2023-02-28T06:52:33;0.50;97.60
12223;DHT22;6174;49.058;8.524;2023-02-28T06:55:03;0.50;97.60
12223;DHT22;6174;49.058;8.524;2023-02-28T06:57:31;0.60;97.70
12223;DHT22;6174;49.058;8.524;2023-02-28T06:59:58;0.60;97.40
12223;DHT22;6174;49.058;8.524;2023-02-28T07:02:27;0.60;97.60
12223;DHT22;6174;49.058;8.524;2023-02-28T07:04:57;0.70;97.40
12223;DHT22;6174;49.058;8.524;2023-02-28T07:07:24;0.70;97.30
12223;DHT22;6174;49.058;8.524;2023-02-28T07:09:50;0.70;97.30
12223;DHT22;6174;49.058;8.524;2023-02-28T07:12:17;0.90;97.40
12223;DHT22;6174;49.058;8.524;2023-02-28T07:14:44;0.80;97.10
12223;DHT22;6174;49.058;8.524;2023-02-28T07:17:11;0.80;97.10
12223;DHT22;6174;49.058;8.524;2023-02-28T07:19:39;0.70;97.00
12223;DHT22;6174;49.058;8.524;2023-02-28T07:22:07;0.70;97.00
12223;DHT22;6174;49.058;8.524;2023-02-28T07:24:34;0.70;97.00
12223;DHT22;6174;49.058;8.524;2023-02-28T07:27:01;0.70;97.20
12223;DHT22;6174;49.058;8.524;2023-02-28T07:29:27;0.70;97.20
12223;DHT22;6174;49.058;8.524;2023-02-28T07:31:54;0.80;97.10
12223;DHT22;6174;49.058;8.524;2023-02-28T07:34:22;0.80;97.00
12223;DHT22;6174;49.058;8.524;2023-02-28T07:36:52;0.80;97.10
12223;DHT22;6174;49.058;8.524;2023-02-28T07:39:19;0.80;97.10
12223;DHT22;6174;49.058;8.524;2023-02-28T07:41:47;0.80;96.70
12223;DHT22;6174;49.058;8.524;2023-02-28T07:44:14;0.80;96.80
12223;DHT22;6174;49.058;8.524;2023-02-28T07:46:40;0.80;96.90
12223;DHT22;6174;49.058;8.524;2023-02-28T07:49:07;0.90;96.80
12223;DHT22;6174;49.058;8.524;2023-02-28T07:51:34;0.90;96.80
12223;DHT22;6174;49.058;8.524;2023-02-28T07:54:03;0.90;96.90
12223;DHT22;6174;49.058;8.524;2023-02-28T07:56:29;1.00;96.90
12223;DHT22;6174;49.058;8.524;2023-02-28T07:58:56;0.90;96.50
12223;DHT22;6174;49.058;8.524;2023-02-28T08:01:23;1.00;96.70
12223;DHT22;6174;49.058;8.524;2023-02-28T08:03:50;1.10;96.60
12223;DHT22;6174;49.058;8.524;2023-02-28T08:06:18;1.00;96.50
12223;DHT22;6174;49.058;8.524;2023-02-28T08:08:45;1.10;96.50
12223;DHT22;6174;49.058;8.524;2023-02-28T08:11:14;1.10;96.50
12223;DHT22;6174;49.058;8.524;2023-02-28T08:13:41;1.20;96.50
12223;DHT22;6174;49.058;8.524;2023-02-28T08:16:09;1.20;96.20
12223;DHT22;6174;49.058;8.524;2023-02-28T08:18:36;1.20;96.10
12223;DHT22;6174;49.058;8.524;2023-02-28T08:21:06;1.20;96.40
12223;DHT22;6174;49.058;8.524;2023-02-28T08:23:33;1.30;96.20
12223;DHT22;6174;49.058;8.524;2023-02-28T08:26:00;1.30;95.90
12223;DHT22;6174;49.058;8.524;2023-02-28T08:28:29;1.30;96.00
12223;DHT22;6174;49.058;8.524;2023-02-28T08:30:56;1.30;95.60
12223;DHT22;6174;49.058;8.524;2023-02-28T08:33:23;1.30;95.80
12223;DHT22;6174;49.058;8.524;2023-02-28T08:35:52;1.40;95.90
12223;DHT22;6174;49.058;8.524;2023-02-28T08:38:19;1.50;95.60
12223;DHT22;6174;49.058;8.524;2023-02-28T08:40:46;1.50;95.60
12223;DHT22;6174;49.058;8.524;2023-02-28T08:43:13;1.60;95.80
12223;DHT22;6174;49.058;8.524;2023-02-28T08:45:41;1.60;95.40
12223;DHT22;6174;49.058;8.524;2023-02-28T08:48:08;1.70;95.30
12223;DHT22;6174;49.058;8.524;2023-02-28T08:50:35;1.70;95.40
12223;DHT22;6174;49.058;8.524;2023-02-28T08:53:02;1.80;95.20
12223;DHT22;6174;49.058;8.524;2023-02-28T08:55:28;1.80;94.70
12223;DHT22;6174;49.058;8.524;2023-02-28T08:57:55;1.80;94.90
12223;DHT22;6174;49.058;8.524;2023-02-28T09:00:22;1.80;94.80
12223;DHT22;6174;49.058;8.524;2023-02-28T09:02:51;1.90;94.60
12223;DHT22;6174;49.058;8.524;2023-02-28T09:05:17;1.90;94.80
12223;DHT22;6174;49.058;8.524;2023-02-28T09:07:44;1.90;93.90
12223;DHT22;6174;49.058;8.524;2023-02-28T09:10:11;2.00;94.40
12223;DHT22;6174;49.058;8.524;2023-02-28T09:12:38;2.00;94.00
12223;DHT22;6174;49.058;8.524;2023-02-28T09:15:06;2.10;94.40
12223;DHT22;6174;49.058;8.524;2023-02-28T09:17:33;2.20;94.30
12223;DHT22;6174;49.058;8.524;2023-02-28T09:20:01;2.30;94.10
12223;DHT22;6174;49.058;8.524;2023-02-28T09:22:28;2.40;94.00
12223;DHT22;6174;49.058;8.524;2023-02-28T09:24:55;2.40;93.40
12223;DHT22;6174;49.058;8.524;2023-02-28T09:27:21;2.50;93.90
12223;DHT22;6174;49.058;8.524;2023-02-28T09:29:48;2.60;93.80
12223;DHT22;6174;49.058;8.524;2023-02-28T09:32:15;2.70;93.70
12223;DHT22;6174;49.058;8.524;2023-02-28T09:34:43;2.80;93.30
12223;DHT22;6174;49.058;8.524;2023-02-28T09:37:11;2.90;93.50
12223;DHT22;6174;49.058;8.524;2023-02-28T09:39:38;3.70;92.80
12223;DHT22;6174;49.058;8.524;2023-02-28T09:42:05;3.20;92.30
12223;DHT22;6174;49.058;8.524;2023-02-28T09:44:40;3.30;91.40
12223;DHT22;6174;49.058;8.524;2023-02-28T09:47:13;3.30;91.20
12223;DHT22;6174;49.058;8.524;2023-02-28T09:49:43;3.20;91.50
12223;DHT22;6174;49.058;8.524;2023-02-28T09:52:17;3.30;92.00
12223;DHT22;6174;49.058;8.524;2023-02-28T09:54:45;3.40;91.80
12223;DHT22;6174;49.058;8.524;2023-02-28T09:57:18;3.50;90.90
12223;DHT22;6174;49.058;8.524;2023-02-28T09:59:54;3.60;91.60
12223;DHT22;6174;49.058;8.524;2023-02-28T10:05:28;3.70;91.10
12223;DHT22;6174;49.058;8.524;2023-02-28T10:08:02;3.70;90.40
12223;DHT22;6174;49.058;8.524;2023-02-28T10:10:36;3.70;90.40
12223;DHT22;6174;49.058;8.524;2023-02-28T10:13:06;3.70;90.60
12223;DHT22;6174;49.058;8.524;2023-02-28T10:15:38;3.60;90.20
12223;DHT22;6174;49.058;8.524;2023-02-28T10:18:11;3.50;90.30
12223;DHT22;6174;49.058;8.524;2023-02-28T10:20:40;3.50;90.60
12223;DHT22;6174;49.058;8.524;2023-02-28T10:23:14;3.30;91.10
12223;DHT22;6174;49.058;8.524;2023-02-28T10:25:45;3.70;91.20
12223;DHT22;6174;49.058;8.524;2023-02-28T10:28:15;3.40;90.40
12223;DHT22;6174;49.058;8.524;2023-02-28T10:30:46;4.20;90.20
12223;DHT22;6174;49.058;8.524;2023-02-28T10:33:19;3.50;90.90
12223;DHT22;6174;49.058;8.524;2023-02-28T10:35:48;4.10;90.50
12223;DHT22;6174;49.058;8.524;2023-02-28T10:38:18;3.60;90.60
12223;DHT22;6174;49.058;8.524;2023-02-28T10:40:45;3.90;90.50
12223;DHT22;6174;49.058;8.524;2023-02-28T10:43:22;3.80;90.40
12223;DHT22;6174;49.058;8.524;2023-02-28T10:45:56;3.90;90.20
12223;DHT22;6174;49.058;8.524;2023-02-28T10:48:34;3.90;89.90
12223;DHT22;6174;49.058;8.524;2023-02-28T10:51:04;3.80;89.50
12223;DHT22;6174;49.058;8.524;2023-02-28T10:53:36;3.70;89.80
12223;DHT22;6174;49.058;8.524;2023-02-28T10:56:05;3.60;90.10
12223;DHT22;6174;49.058;8.524;2023-02-28T10:58:47;3.50;90.10
12223;DHT22;6174;49.058;8.524;2023-02-28T11:01:16;3.30;90.30
12223;DHT22;6174;49.058;8.524;2023-02-28T11:03:43;3.30;90.70
12223;DHT22;6174;49.058;8.524;2023-02-28T11:06:16;3.30;90.70
12223;DHT22;6174;49.058;8.524;2023-02-28T11:08:48;3.40;91.10
12223;DHT22;6174;49.058;8.524;2023-02-28T11:11:16;3.40;90.80
12223;DHT22;6174;49.058;8.524;2023-02-28T11:13:44;3.40;90.50
12223;DHT22;6174;49.058;8.524;2023-02-28T11:16:13;3.40;90.30
12223;DHT22;6174;49.058;8.524;2023-02-28T11:18:43;3.40;90.30
12223;DHT22;6174;49.058;8.524;2023-02-28T11:21:16;3.40;90.00
12223;DHT22;6174;49.058;8.524;2023-02-28T11:23:45;3.50;90.50
12223;DHT22;6174;49.058;8.524;2023-02-28T11:26:15;3.60;90.60
12223;DHT22;6174;49.058;8.524;2023-02-28T11:28:42;3.60;90.40
12223;DHT22;6174;49.058;8.524;2023-02-28T11:31:17;3.70;90.50
12223;DHT22;6174;49.058;8.524;2023-02-28T11:33:48;3.70;90.00
12223;DHT22;6174;49.058;8.524;2023-02-28T11:36:19;3.70;89.60
12223;DHT22;6174;49.058;8.524;2023-02-28T11:38:48;3.70;88.90
12223;DHT22;6174;49.058;8.524;2023-02-28T11:41:27;3.70;89.60
12223;DHT22;6174;49.058;8.524;2023-02-28T11:44:09;3.70;89.90
12223;DHT22;6174;49.058;8.524;2023-02-28T11:46:40;3.80;90.10
12223;DHT22;6174;49.058;8.524;2023-02-28T11:49:22;3.90;90.30
12223;DHT22;6174;49.058;8.524;2023-02-28T11:51:54;4.00;90.30
12223;DHT22;6174;49.058;8.524;2023-02-28T11:54:56;4.10;89.50
12223;DHT22;6174;49.058;8.524;2023-02-28T11:57:36;4.30;89.70
12223;DHT22;6174;49.058;8.524;2023-02-28T12:00:15;4.40;90.10
12223;DHT22;6174;49.058;8.524;2023-02-28T12:02:58;4.40;88.50
12223;DHT22;6174;49.058;8.524;2023-02-28T12:05:33;4.40;88.90
12223;DHT22;6174;49.058;8.524;2023-02-28T12:08:15;4.50;89.30
12223;DHT22;6174;49.058;8.524;2023-02-28T12:10:58;4.50;87.50
12223;DHT22;6174;49.058;8.524;2023-02-28T12:13:33;4.60;85.80
12223;DHT22;6174;49.058;8.524;2023-02-28T12:16:20;4.50;84.70
12223;DHT22;6174;49.058;8.524;2023-02-28T12:19:00;4.60;87.00
12223;DHT22;6174;49.058;8.524;2023-02-28T12:21:41;4.80;86.50
12223;DHT22;6174;49.058;8.524;2023-02-28T12:24:22;4.80;85.80
12223;DHT22;6174;49.058;8.524;2023-02-28T12:26:52;5.00;85.60
12223;DHT22;6174;49.058;8.524;2023-02-28T12:29:23;4.90;84.00
12223;DHT22;6174;49.058;8.524;2023-02-28T12:31:54;4.90;84.70
12223;DHT22;6174;49.058;8.524;2023-02-28T12:34:25;4.90;83.90
12223;DHT22;6174;49.058;8.524;2023-02-28T12:36:56;4.80;83.20
12223;DHT22;6174;49.058;8.524;2023-02-28T12:39:27;4.90;83.60
12223;DHT22;6174;49.058;8.524;2023-02-28T12:42:00;5.00;82.90
12223;DHT22;6174;49.058;8.524;2023-02-28T12:44:34;5.10;83.10
12223;DHT22;6174;49.058;8.524;2023-02-28T12:47:03;5.20;82.40
12223;DHT22;6174;49.058;8.524;2023-02-28T12:49:33;5.20;82.30
12223;DHT22;6174;49.058;8.524;2023-02-28T12:52:01;5.10;82.10
12223;DHT22;6174;49.058;8.524;2023-02-28T12:54:32;5.10;83.20
12223;DHT22;6174;49.058;8.524;2023-02-28T12:57:09;5.20;83.00
12223;DHT22;6174;49.058;8.524;2023-02-28T12:59:40;5.10;83.10
12223;DHT22;6174;49.058;8.524;2023-02-28T13:02:41;5.20;82.90
12223;DHT22;6174;49.058;8.524;2023-02-28T13:05:24;5.30;83.80
12223;DHT22;6174;49.058;8.524;2023-02-28T13:08:24;5.30;82.20
12223;DHT22;6174;49.058;8.524;2023-02-28T13:10:54;5.30;82.30
12223;DHT22;6174;49.058;8.524;2023-02-28T13:13:24;5.30;81.20
12223;DHT22;6174;49.058;8.524;2023-02-28T13:16:04;5.20;81.60
12223;DHT22;6174;49.058;8.524;2023-02-28T13:18:34;5.20;81.40
12223;DHT22;6174;49.058;8.524;2023-02-28T13:21:03;5.30;84.30
12223;DHT22;6174;49.058;8.524;2023-02-28T13:24:00;5.50;82.80
12223;DHT22;6174;49.058;8.524;2023-02-28T13:27:10;5.60;82.90
12223;DHT22;6174;49.058;8.524;2023-02-28T13:29:39;5.50;83.40
12223;DHT22;6174;49.058;8.524;2023-02-28T13:32:34;5.40;82.80
12223;DHT22;6174;49.058;8.524;2023-02-28T13:35:35;5.40;82.30
12223;DHT22;6174;49.058;8.524;2023-02-28T13:38:25;5.40;83.30
12223;DHT22;6174;49.058;8.524;2023-02-28T13:44:00;5.50;83.90
12223;DHT22;6174;49.058;8.524;2023-02-28T13:46:29;5.50;82.30
12223;DHT22;6174;49.058;8.524;2023-02-28T13:48:56;5.50;82.80
12223;DHT22;6174;49.058;8.524;2023-02-28T13:51:40;5.50;82.30
12223;DHT22;6174;49.058;8.524;2023-02-28T13:54:19;5.50;82.40
12223;DHT22;6174;49.058;8.524;2023-02-28T13:56:52;5.40;82.40
12223;DHT22;6174;49.058;8.524;2023-02-28T13:59:29;5.30;82.50
12223;DHT22;6174;49.058;8.524;2023-02-28T14:02:25;5.30;82.80
12223;DHT22;6174;49.058;8.524;2023-02-28T14:05:00;5.30;83.70
12223;DHT22;6174;49.058;8.524;2023-02-28T14:07:31;5.30;82.00
12223;DHT22;6174;49.058;8.524;2023-02-28T14:10:01;5.40;83.40
12223;DHT22;6174;49.058;8.524;2023-02-28T14:12:53;5.50;83.80
12223;DHT22;6174;49.058;8.524;2023-02-28T14:18:29;5.80;83.60
12223;DHT22;6174;49.058;8.524;2023-02-28T14:21:13;5.90;83.70
12223;DHT22;6174;49.058;8.524;2023-02-28T14:27:01;6.10;82.40
12223;DHT22;6174;49.058;8.524;2023-02-28T14:32:34;6.00;84.00
12223;DHT22;6174;49.058;8.524;2023-02-28T14:35:15;6.10;83.10
12223;DHT22;6174;49.058;8.524;2023-02-28T14:37:44;6.10;83.00
12223;DHT22;6174;49.058;8.524;2023-02-28T14:40:15;6.00;82.90
12223;DHT22;6174;49.058;8.524;2023-02-28T14:42:47;6.00;82.10
12223;DHT22;6174;49.058;8.524;2023-02-28T14:45:18;5.90;82.20
12223;DHT22;6174;49.058;8.524;2023-02-28T14:47:46;5.90;81.80
12223;DHT22;6174;49.058;8.524;2023-02-28T14:50:19;5.80;80.90
12223;DHT22;6174;49.058;8.524;2023-02-28T14:52:46;5.80;81.30
12223;DHT22;6174;49.058;8.524;2023-02-28T14:55:15;5.70;81.70
12223;DHT22;6174;49.058;8.524;2023-02-28T14:57:51;5.70;82.30
12223;DHT22;6174;49.058;8.524;2023-02-28T15:00:22;5.80;83.20
12223;DHT22;6174;49.058;8.524;2023-02-28T15:02:49;5.80;83.10
12223;DHT22;6174;49.058;8.524;2023-02-28T15:05:24;5.90;83.30
12223;DHT22;6174;49.058;8.524;2023-02-28T15:08:06;5.90;81.50
12223;DHT22;6174;49.058;8.524;2023-02-28T15:10:34;5.80;81.70
12223;DHT22;6174;49.058;8.524;2023-02-28T15:13:02;5.70;81.90
12223;DHT22;6174;49.058;8.524;2023-02-28T15:15:39;5.70;82.30
12223;DHT22;6174;49.058;8.524;2023-02-28T15:18:13;5.70;82.30
12223;DHT22;6174;49.058;8.524;2023-02-28T15:20:43;5.70;82.70
12223;DHT22;6174;49.058;8.524;2023-02-28T15:23:11;5.80;82.70
12223;DHT22;6174;49.058;8.524;2023-02-28T15:25:40;5.80;82.80
12223;DHT22;6174;49.058;8.524;2023-02-28T15:28:13;5.70;82.50
12223;DHT22;6174;49.058;8.524;2023-02-28T15:30:52;5.70;82.30
12223;DHT22;6174;49.058;8.524;2023-02-28T15:33:21;5.60;81.90
12223;DHT22;6174;49.058;8.524;2023-02-28T15:35:50;5.70;82.30
12223;DHT22;6174;49.058;8.524;2023-02-28T15:38:21;5.60;81.80
12223;DHT22;6174;49.058;8.524;2023-02-28T15:40:51;5.60;81.50
12223;DHT22;6174;49.058;8.524;2023-02-28T15:43:24;5.50;81.80
12223;DHT22;6174;49.058;8.524;2023-02-28T15:45:56;5.60;82.60
12223;DHT22;6174;49.058;8.524;2023-02-28T15:48:25;5.60;82.50
12223;DHT22;6174;49.058;8.524;2023-02-28T15:50:56;5.60;83.10
12223;DHT22;6174;49.058;8.524;2023-02-28T15:53:28;5.60;82.80
12223;DHT22;6174;49.058;8.524;2023-02-28T15:55:59;5.50;82.40
12223;DHT22;6174;49.058;8.524;2023-02-28T15:58:26;5.50;82.10
12223;DHT22;6174;49.058;8.524;2023-02-28T16:01:04;5.40;82.00
12223;DHT22;6174;49.058;8.524;2023-02-28T16:03:38;5.30;81.90
12223;DHT22;6174;49.058;8.524;2023-02-28T16:09:08;5.30;83.70
12223;DHT22;6174;49.058;8.524;2023-02-28T16:11:38;5.20;82.90
12223;DHT22;6174;49.058;8.524;2023-02-28T16:14:08;5.20;82.70
12223;DHT22;6174;49.058;8.524;2023-02-28T16:16:42;5.10;82.90
12223;DHT22;6174;49.058;8.524;2023-02-28T16:19:10;5.10;83.90
12223;DHT22;6174;49.058;8.524;2023-02-28T16:21:38;5.00;84.20
12223;DHT22;6174;49.058;8.524;2023-02-28T16:24:06;5.10;84.40
12223;DHT22;6174;49.058;8.524;2023-02-28T16:26:33;5.00;84.90
12223;DHT22;6174;49.058;8.524;2023-02-28T16:29:00;4.90;84.00
12223;DHT22;6174;49.058;8.524;2023-02-28T16:31:28;4.90;84.20
12223;DHT22;6174;49.058;8.524;2023-02-28T16:33:55;4.90;84.30
12223;DHT22;6174;49.058;8.524;2023-02-28T16:36:24;4.90;84.40
12223;DHT22;6174;49.058;8.524;2023-02-28T16:38:53;4.80;84.40
12223;DHT22;6174;49.058;8.524;2023-02-28T16:41:21;4.90;84.50
12223;DHT22;6174;49.058;8.524;2023-02-28T16:43:51;4.80;85.30
12223;DHT22;6174;49.058;8.524;2023-02-28T16:46:18;4.80;85.60
12223;DHT22;6174;49.058;8.524;2023-02-28T16:48:46;4.70;85.40
12223;DHT22;6174;49.058;8.524;2023-02-28T16:51:16;4.60;84.90
12223;DHT22;6174;49.058;8.524;2023-02-28T16:53:44;4.60;85.50
12223;DHT22;6174;49.058;8.524;2023-02-28T16:56:17;4.60;85.60
12223;DHT22;6174;49.058;8.524;2023-02-28T16:58:45;4.60;85.80
12223;DHT22;6174;49.058;8.524;2023-02-28T17:01:12;4.50;85.70
12223;DHT22;6174;49.058;8.524;2023-02-28T17:03:39;4.50;85.90
12223;DHT22;6174;49.058;8.524;2023-02-28T17:06:09;4.40;86.50
12223;DHT22;6174;49.058;8.524;2023-02-28T17:08:42;4.40;86.60
12223;DHT22;6174;49.058;8.524;2023-02-28T17:11:09;4.30;87.00
12223;DHT22;6174;49.058;8.524;2023-02-28T17:18:40;4.10;88.10
12223;DHT22;6174;49.058;8.524;2023-02-28T17:21:13;4.10;88.50
12223;DHT22;6174;49.058;8.524;2023-02-28T17:23:40;4.10;88.50
12223;DHT22;6174;49.058;8.524;2023-02-28T17:26:12;4.00;88.60
12223;DHT22;6174;49.058;8.524;2023-02-28T17:28:39;3.90;88.80
12223;DHT22;6174;49.058;8.524;2023-02-28T17:31:07;3.90;88.70
12223;DHT22;6174;49.058;8.524;2023-02-28T17:33:33;3.80;89.10
12223;DHT22;6174;49.058;8.524;2023-02-28T17:36:02;3.80;89.00
12223;DHT22;6174;49.058;8.524;2023-02-28T17:38:28;3.80;89.30
12223;DHT22;6174;49.058;8.524;2023-02-28T17:40:55;3.80;89.50
12223;DHT22;6174;49.058;8.524;2023-02-28T17:43:23;3.70;89.70
12223;DHT22;6174;49.058;8.524;2023-02-28T17:45:50;3.70;90.00
12223;DHT22;6174;49.058;8.524;2023-02-28T17:48:17;3.60;90.00
12223;DHT22;6174;49.058;8.524;2023-02-28T17:50:44;3.60;90.10
12223;DHT22;6174;49.058;8.524;2023-02-28T17:53:12;3.50;90.10
12223;DHT22;6174;49.058;8.524;2023-02-28T17:55:39;3.50;90.10
12223;DHT22;6174;49.058;8.524;2023-02-28T17:58:05;3.50;90.20
12223;DHT22;6174;49.058;8.524;2023-02-28T18:00:32;3.40;90.30
12223;DHT22;6174;49.058;8.524;2023-02-28T18:02:59;3.40;90.30
12223;DHT22;6174;49.058;8.524;2023-02-28T18:05:26;3.40;90.40
12223;DHT22;6174;49.058;8.524;2023-02-28T18:07:53;3.40;90.50
12223;DHT22;6174;49.058;8.524;2023-02-28T18:10:21;3.30;90.40
12223;DHT22;6174;49.058;8.524;2023-02-28T18:12:49;3.30;90.50
12223;DHT22;6174;49.058;8.524;2023-02-28T18:15:17;3.30;90.50
12223;DHT22;6174;49.058;8.524;2023-02-28T18:17:45;3.30;90.50
12223;DHT22;6174;49.058;8.524;2023-02-28T18:20:12;3.30;90.50
12223;DHT22;6174;49.058;8.524;2023-02-28T18:22:40;3.20;90.70
12223;DHT22;6174;49.058;8.524;2023-02-28T18:25:09;3.20;90.80
12223;DHT22;6174;49.058;8.524;2023-02-28T18:27:40;3.10;90.70
12223;DHT22;6174;49.058;8.524;2023-02-28T18:30:19;3.10;91.00
12223;DHT22;6174;49.058;8.524;2023-02-28T18:32:45;3.00;91.30
12223;DHT22;6174;49.058;8.524;2023-02-28T18:35:12;3.00;91.20
12223;DHT22;6174;49.058;8.524;2023-02-28T18:37:39;3.00;91.30
12223;DHT22;6174;49.058;8.524;2023-02-28T18:40:07;2.90;91.20
12223;DHT22;6174;49.058;8.524;2023-02-28T18:42:34;2.90;91.30
12223;DHT22;6174;49.058;8.524;2023-02-28T18:45:02;2.90;91.40
12223;DHT22;6174;49.058;8.524;2023-02-28T18:47:29;2.90;91.50
12223;DHT22;6174;49.058;8.524;2023-02-28T18:49:56;2.90;91.60
12223;DHT22;6174;49.058;8.524;2023-02-28T18:52:23;2.80;91.60
12223;DHT22;6174;49.058;8.524;2023-02-28T18:54:50;2.80;91.60
12223;DHT22;6174;49.058;8.524;2023-02-28T18:57:16;2.80;91.70
12223;DHT22;6174;49.058;8.524;2023-02-28T18:59:43;2.80;91.70
12223;DHT22;6174;49.058;8.524;2023-02-28T19:02:11;2.80;91.70
12223;DHT22;6174;49.058;8.524;2023-02-28T19:04:40;2.80;91.90
12223;DHT22;6174;49.058;8.524;2023-02-28T19:07:06;2.80;91.90
12223;DHT22;6174;49.058;8.524;2023-02-28T19:09:34;2.70;91.80
12223;DHT22;6174;49.058;8.524;2023-02-28T19:12:00;2.70;91.90
12223;DHT22;6174;49.058;8.524;2023-02-28T19:14:27;2.70;91.90
12223;DHT22;6174;49.058;8.524;2023-02-28T19:16:54;2.70;92.00
12223;DHT22;6174;49.058;8.524;2023-02-28T19:19:22;2.60;92.00
12223;DHT22;6174;49.058;8.524;2023-02-28T19:21:49;2.60;92.00
12223;DHT22;6174;49.058;8.524;2023-02-28T19:24:15;2.60;91.90
12223;DHT22;6174;49.058;8.524;2023-02-28T19:26:42;2.50;92.00
12223;DHT22;6174;49.058;8.524;2023-02-28T19:29:09;2.50;92.10
12223;DHT22;6174;49.058;8.524;2023-02-28T19:31:35;2.50;92.20
12223;DHT22;6174;49.058;8.524;2023-02-28T19:34:02;2.50;92.30
12223;DHT22;6174;49.058;8.524;2023-02-28T19:36:30;2.40;92.20
12223;DHT22;6174;49.058;8.524;2023-02-28T19:38:57;2.40;92.30
12223;DHT22;6174;49.058;8.524;2023-02-28T19:41:24;2.40;92.30
12223;DHT22;6174;49.058;8.524;2023-02-28T19:43:52;2.40;92.40
12223;DHT22;6174;49.058;8.524;2023-02-28T19:46:19;2.40;92.30
12223;DHT22;6174;49.058;8.524;2023-02-28T19:48:45;2.40;92.50
12223;DHT22;6174;49.058;8.524;2023-02-28T19:51:13;2.30;92.40
12223;DHT22;6174;49.058;8.524;2023-02-28T19:53:42;2.30;92.50
12223;DHT22;6174;49.058;8.524;2023-02-28T19:56:09;2.20;92.50
12223;DHT22;6174;49.058;8.524;2023-02-28T19:58:37;2.10;92.60
12223;DHT22;6174;49.058;8.524;2023-02-28T20:01:08;2.10;92.70
12223;DHT22;6174;49.058;8.524;2023-02-28T20:03:35;2.00;92.80
12223;DHT22;6174;49.058;8.524;2023-02-28T20:06:04;2.00;92.90
12223;DHT22;6174;49.058;8.524;2023-02-28T20:08:32;2.00;93.00
12223;DHT22;6174;49.058;8.524;2023-02-28T20:11:05;1.90;93.10
12223;DHT22;6174;49.058;8.524;2023-02-28T20:13:32;1.90;93.20
12223;DHT22;6174;49.058;8.524;2023-02-28T20:15:59;1.80;93.20
12223;DHT22;6174;49.058;8.524;2023-02-28T20:18:27;1.80;93.40
12223;DHT22;6174;49.058;8.524;2023-02-28T20:20:53;1.70;93.60
12223;DHT22;6174;49.058;8.524;2023-02-28T20:23:20;1.70;93.80
12223;DHT22;6174;49.058;8.524;2023-02-28T20:25:47;1.60;93.90
12223;DHT22;6174;49.058;8.524;2023-02-28T20:28:17;1.60;94.10
12223;DHT22;6174;49.058;8.524;2023-02-28T20:30:44;1.60;94.00
12223;DHT22;6174;49.058;8.524;2023-02-28T20:33:13;1.60;94.10
12223;DHT22;6174;49.058;8.524;2023-02-28T20:35:40;1.60;94.30
12223;DHT22;6174;49.058;8.524;2023-02-28T20:38:06;1.60;94.30
12223;DHT22;6174;49.058;8.524;2023-02-28T20:40:33;1.50;94.20
12223;DHT22;6174;49.058;8.524;2023-02-28T20:43:00;1.50;94.30
12223;DHT22;6174;49.058;8.524;2023-02-28T20:45:28;1.40;94.50
12223;DHT22;6174;49.058;8.524;2023-02-28T20:47:55;1.30;94.60
12223;DHT22;6174;49.058;8.524;2023-02-28T20:50:21;1.30;94.80
12223;DHT22;6174;49.058;8.524;2023-02-28T20:52:48;1.20;94.90
12223;DHT22;6174;49.058;8.524;2023-02-28T20:55:15;1.20;95.10
12223;DHT22;6174;49.058;8.524;2023-02-28T20:57:42;1.20;95.20
12223;DHT22;6174;49.058;8.524;2023-02-28T21:00:10;1.20;95.40
12223;DHT22;6174;49.058;8.524;2023-02-28T21:02:41;1.20;95.50
12223;DHT22;6174;49.058;8.524;2023-02-28T21:05:08;1.20;95.50
12223;DHT22;6174;49.058;8.524;2023-02-28T21:07:35;1.20;95.50
12223;DHT22;6174;49.058;8.524;2023-02-28T21:10:02;1.20;95.40
12223;DHT22;6174;49.058;8.524;2023-02-28T21:12:29;1.20;95.40
12223;DHT22;6174;49.058;8.524;2023-02-28T21:14:55;1.20;95.40
12223;DHT22;6174;49.058;8.524;2023-02-28T21:17:22;1.30;95.30
12223;DHT22;6174;49.058;8.524;2023-02-28T21:19:50;1.30;95.20
12223;DHT22;6174;49.058;8.524;2023-02-28T21:22:17;1.20;95.20
12223;DHT22;6174;49.058;8.524;2023-02-28T21:24:44;1.20;95.20
12223;DHT22;6174;49.058;8.524;2023-02-28T21:27:10;1.10;95.20
12223;DHT22;6174;49.058;8.524;2023-02-28T21:29:37;1.10;95.20
12223;DHT22;6174;49.058;8.524;2023-02-28T21:32:04;1.10;95.20
12223;DHT22;6174;49.058;8.524;2023-02-28T21:34:31;1.10;95.20
12223;DHT22;6174;49.058;8.524;2023-02-28T21:36:59;1.10;95.30
12223;DHT22;6174;49.058;8.524;2023-02-28T21:39:26;1.10;95.40
12223;DHT22;6174;49.058;8.524;2023-02-28T21:41:54;1.10;95.20
12223;DHT22;6174;49.058;8.524;2023-02-28T21:44:28;1.20;95.20